createdAt,value
2022-10-18T00:00:32.897Z,49.60
2022-10-18T00:01:32.880Z,46.40
2022-10-18T00:02:32.941Z,46.00
2022-10-18T00:03:32.945Z,48.50
2022-10-18T00:04:32.852Z,49.20
2022-10-18T00:05:32.865Z,43.70
2022-10-18T00:06:32.830Z,43.00
2022-10-18T00:07:33.135Z,43.20
2022-10-18T00:08:33.068Z,41.90
2022-10-18T00:09:32.789Z,38.50
2022-10-18T00:10:32.789Z,38.80
2022-10-18T00:11:32.807Z,43.10
2022-10-18T00:12:32.841Z,44.60
2022-10-18T00:13:32.743Z,46.30
2022-10-18T00:14:32.749Z,50.80
2022-10-18T00:15:32.719Z,46.50
2022-10-18T00:16:32.727Z,47.40
2022-10-18T00:17:32.994Z,45.80
2022-10-18T00:18:32.707Z,42.40
2022-10-18T00:19:32.681Z,38.00
2022-10-18T00:20:32.691Z,38.20
2022-10-18T00:21:32.731Z,44.20
2022-10-18T00:22:33.028Z,42.80
2022-10-18T00:23:32.673Z,35.90
2022-10-18T00:24:32.638Z,36.10
2022-10-18T00:25:32.615Z,35.40
2022-10-18T00:26:32.627Z,35.10
2022-10-18T00:27:32.595Z,41.50
2022-10-18T00:28:32.611Z,39.80
2022-10-18T00:29:32.620Z,37.10
2022-10-18T00:30:32.577Z,29.50
2022-10-18T00:31:32.570Z,32.20
2022-10-18T00:32:32.975Z,30.00
2022-10-18T00:33:32.530Z,29.40
2022-10-18T00:34:32.529Z,30.00
2022-10-18T00:35:32.538Z,28.50
2022-10-18T00:36:32.509Z,28.70
2022-10-18T00:37:32.486Z,32.60
2022-10-18T00:38:32.490Z,33.10
2022-10-18T00:39:32.473Z,34.70
2022-10-18T00:40:32.471Z,33.80
2022-10-18T00:41:32.471Z,38.70
2022-10-18T00:42:32.650Z,35.80
2022-10-18T00:43:32.427Z,37.70
2022-10-18T00:44:32.424Z,45.30
2022-10-18T00:45:32.405Z,50.70
2022-10-18T00:46:32.403Z,46.40
2022-10-18T00:47:32.414Z,46.50
2022-10-18T00:48:32.384Z,49.10
2022-10-18T00:49:32.356Z,45.80
2022-10-18T00:50:32.362Z,50.90
2022-10-18T00:51:32.349Z,57.30
2022-10-18T00:52:32.639Z,50.10
2022-10-18T00:53:32.350Z,46.40
2022-10-18T00:54:32.322Z,54.30
2022-10-18T00:55:32.300Z,47.20
2022-10-18T00:56:32.302Z,52.50
2022-10-18T00:57:32.280Z,65.70
2022-10-18T00:58:32.275Z,47.10
2022-10-18T00:59:32.373Z,47.90
2022-10-18T01:00:32.256Z,47.00
2022-10-18T01:01:32.256Z,44.90
2022-10-18T01:02:32.697Z,40.10
2022-10-18T01:03:32.205Z,40.30
2022-10-18T01:04:32.219Z,41.30
2022-10-18T01:05:32.214Z,38.50
2022-10-18T01:06:32.193Z,36.30
2022-10-18T01:07:32.602Z,43.80
2022-10-18T01:08:32.168Z,48.70
2022-10-18T01:09:32.146Z,50.60
2022-10-18T01:10:32.150Z,41.80
2022-10-18T01:11:32.154Z,39.50
2022-10-18T01:12:32.136Z,44.80
2022-10-18T01:13:32.106Z,35.10
2022-10-18T01:14:32.101Z,34.60
2022-10-18T01:15:32.078Z,35.10
2022-10-18T01:16:32.087Z,35.30
2022-10-18T01:17:32.424Z,36.80
2022-10-18T01:18:32.064Z,37.00
2022-10-18T01:19:32.042Z,37.70
2022-10-18T01:20:32.040Z,45.90
2022-10-18T01:21:32.019Z,50.60
2022-10-18T01:22:32.019Z,49.10
2022-10-18T01:23:32.049Z,50.40
2022-10-18T01:24:32.001Z,47.10
2022-10-18T01:25:31.971Z,42.20
2022-10-18T01:26:31.975Z,38.50
2022-10-18T01:27:32.276Z,41.80
2022-10-18T01:28:31.998Z,40.30
2022-10-18T01:29:31.973Z,40.90
2022-10-18T01:30:31.928Z,44.60
2022-10-18T01:31:31.912Z,49.10
2022-10-18T01:32:31.910Z,45.10
2022-10-18T01:33:31.885Z,45.90
2022-10-18T01:34:31.885Z,45.30
2022-10-18T01:35:31.892Z,50.20
2022-10-18T01:36:31.864Z,50.20
2022-10-18T01:37:32.268Z,66.00
2022-10-18T01:38:31.853Z,45.30
2022-10-18T01:39:31.827Z,50.50
2022-10-18T01:40:31.823Z,62.90
2022-10-18T01:41:31.841Z,53.80
2022-10-18T01:42:31.800Z,39.10
2022-10-18T01:43:31.783Z,42.80
2022-10-18T01:44:31.785Z,36.60
2022-10-18T01:45:31.755Z,39.20
2022-10-18T01:46:31.760Z,37.40
2022-10-18T01:47:32.097Z,34.70
2022-10-18T01:48:31.737Z,36.40
2022-10-18T01:49:31.712Z,38.50
2022-10-18T01:50:31.726Z,38.00
2022-10-18T01:51:31.691Z,42.40
2022-10-18T01:52:31.956Z,42.10
2022-10-18T01:53:31.702Z,40.40
2022-10-18T01:54:31.675Z,41.10
2022-10-18T01:55:31.650Z,44.70
2022-10-18T01:56:31.660Z,44.60
2022-10-18T01:57:31.628Z,43.30
2022-10-18T01:58:31.631Z,46.50
2022-10-18T01:59:31.635Z,40.90
2022-10-18T02:00:31.611Z,40.00
2022-10-18T02:01:31.587Z,41.30
2022-10-18T02:02:31.994Z,40.70
2022-10-18T02:03:31.562Z,44.00
2022-10-18T02:04:31.567Z,51.90
2022-10-18T02:05:31.577Z,55.70
2022-10-18T02:06:31.551Z,53.80
2022-10-18T02:07:31.517Z,41.00
2022-10-18T02:08:31.522Z,45.60
2022-10-18T02:09:31.495Z,33.90
2022-10-18T02:10:31.504Z,32.80
2022-10-18T02:11:31.509Z,42.70
2022-10-18T02:12:31.673Z,44.90
2022-10-18T02:13:31.456Z,45.00
2022-10-18T02:14:31.456Z,43.30
2022-10-18T02:15:31.438Z,38.10
2022-10-18T02:16:31.444Z,34.20
2022-10-18T02:17:31.442Z,33.90
2022-10-18T02:18:31.422Z,33.90
2022-10-18T02:19:31.398Z,40.10
2022-10-18T02:20:31.399Z,50.70
2022-10-18T02:21:31.370Z,41.10
2022-10-18T02:22:31.584Z,43.30
2022-10-18T02:23:31.410Z,44.80
2022-10-18T02:24:31.347Z,44.40
2022-10-18T02:25:31.331Z,41.70
2022-10-18T02:26:31.331Z,35.90
2022-10-18T02:27:31.304Z,34.30
2022-10-18T02:28:31.308Z,36.20
2022-10-18T02:29:31.321Z,51.60
2022-10-18T02:30:31.284Z,42.00
2022-10-18T02:31:31.266Z,47.50
2022-10-18T02:32:31.542Z,45.00
2022-10-18T02:33:31.238Z,40.80
2022-10-18T02:34:31.245Z,40.60
2022-10-18T02:35:31.245Z,36.40
2022-10-18T02:36:31.223Z,34.00
2022-10-18T02:37:31.200Z,39.90
2022-10-18T02:38:31.199Z,48.20
2022-10-18T02:39:31.171Z,58.20
2022-10-18T02:40:31.177Z,58.40
2022-10-18T02:41:31.183Z,52.70
2022-10-18T02:42:31.445Z,40.90
2022-10-18T02:43:31.132Z,38.10
2022-10-18T02:44:31.143Z,39.10
2022-10-18T02:45:31.108Z,32.20
2022-10-18T02:46:31.133Z,35.10
2022-10-18T02:47:31.501Z,34.20
2022-10-18T02:48:31.092Z,35.10
2022-10-18T02:49:31.065Z,44.30
2022-10-18T02:50:31.070Z,32.30
2022-10-18T02:51:31.041Z,36.90
2022-10-18T02:52:31.048Z,38.10
2022-10-18T02:53:31.057Z,37.10
2022-10-18T02:54:31.028Z,43.30
2022-10-18T02:55:31.002Z,33.90
2022-10-18T02:56:31.011Z,31.40
2022-10-18T02:57:31.335Z,33.40
2022-10-18T02:58:30.984Z,40.60
2022-10-18T02:59:30.996Z,48.60
2022-10-18T03:00:30.959Z,49.30
2022-10-18T03:01:30.978Z,55.90
2022-10-18T03:02:30.944Z,51.80
2022-10-18T03:03:30.916Z,34.30
2022-10-18T03:04:30.925Z,30.00
2022-10-18T03:05:30.916Z,29.50
2022-10-18T03:06:30.895Z,42.10
2022-10-18T03:07:31.255Z,44.20
2022-10-18T03:08:30.883Z,53.30
2022-10-18T03:09:30.849Z,50.70
2022-10-18T03:10:30.880Z,39.80
2022-10-18T03:11:30.829Z,44.40
2022-10-18T03:12:30.881Z,47.20
2022-10-18T03:13:30.827Z,60.60
2022-10-18T03:14:30.837Z,58.90
2022-10-18T03:15:30.786Z,40.50
2022-10-18T03:16:30.795Z,35.70
2022-10-18T03:17:31.191Z,35.60
2022-10-18T03:18:30.757Z,33.70
2022-10-18T03:19:30.761Z,29.80
2022-10-18T03:20:30.736Z,32.70
2022-10-18T03:21:30.766Z,39.50
2022-10-18T03:22:30.710Z,41.20
2022-10-18T03:23:30.719Z,41.80
2022-10-18T03:24:30.686Z,43.20
2022-10-18T03:25:30.694Z,40.30
2022-10-18T03:26:30.669Z,41.00
2022-10-18T03:27:30.884Z,37.50
2022-10-18T03:28:30.705Z,39.20
2022-10-18T03:29:30.653Z,41.10
2022-10-18T03:30:30.624Z,43.50
2022-10-18T03:32:30.948Z,38.30
2022-10-18T03:33:30.606Z,45.60
2022-10-18T03:34:30.583Z,42.70
2022-10-18T03:35:30.601Z,44.60
2022-10-18T03:36:30.555Z,47.60
2022-10-18T03:37:30.564Z,47.60
2022-10-18T03:38:30.561Z,44.90
2022-10-18T03:39:30.538Z,48.40
2022-10-18T03:41:30.525Z,44.60
2022-10-18T03:42:30.787Z,43.60
2022-10-18T03:43:30.524Z,45.90
2022-10-18T03:44:30.476Z,47.60
2022-10-18T03:45:31.483Z,52.20
2022-10-18T03:46:30.448Z,50.10
2022-10-18T03:47:30.459Z,51.10
2022-10-18T03:48:30.428Z,50.50
2022-10-18T03:49:30.526Z,51.10
2022-10-18T03:50:30.411Z,50.80
2022-10-18T03:51:30.415Z,67.60
2022-10-18T03:52:30.713Z,66.80
2022-10-18T03:53:30.393Z,61.30
2022-10-18T03:54:30.398Z,75.60
2022-10-18T03:55:30.371Z,74.20
2022-10-18T03:56:30.342Z,57.80
2022-10-18T03:57:30.346Z,61.20
2022-10-18T03:58:30.339Z,60.30
2022-10-18T03:59:30.355Z,59.20
2022-10-18T04:00:30.307Z,59.70
2022-10-18T04:01:30.381Z,60.20
2022-10-18T04:02:30.695Z,59.90
2022-10-18T04:03:30.282Z,58.40
2022-10-18T04:04:30.259Z,65.30
2022-10-18T04:05:30.284Z,67.10
2022-10-18T04:06:30.235Z,66.20
2022-10-18T04:07:30.283Z,85.60
2022-10-18T04:08:30.225Z,79.80
2022-10-18T04:09:30.205Z,68.10
2022-10-18T04:10:30.268Z,72.30
2022-10-18T04:11:30.184Z,83.50
2022-10-18T04:12:30.451Z,79.20
2022-10-18T04:13:30.161Z,76.10
2022-10-18T04:14:30.185Z,76.00
2022-10-18T04:15:30.159Z,67.60
2022-10-18T04:16:30.320Z,67.20
2022-10-18T04:17:30.505Z,70.90
2022-10-18T04:18:30.135Z,58.50
2022-10-18T04:19:30.097Z,68.10
2022-10-18T04:20:30.099Z,53.90
2022-10-18T04:21:30.071Z,86.20
2022-10-18T04:22:30.118Z,69.80
2022-10-18T04:23:31.794Z,59.50
2022-10-18T04:24:30.054Z,65.80
2022-10-18T04:25:30.093Z,73.90
2022-10-18T04:26:30.035Z,58.90
2022-10-18T04:27:30.273Z,62.70
2022-10-18T04:28:30.106Z,110.70
2022-10-18T04:29:29.987Z,53.50
2022-10-18T04:30:30.009Z,56.60
2022-10-18T04:31:29.967Z,47.60
2022-10-18T04:32:29.976Z,49.40
2022-10-18T04:33:29.944Z,53.20
2022-10-18T04:34:30.013Z,57.90
2022-10-18T04:35:29.937Z,52.80
2022-10-18T04:36:29.927Z,54.10
2022-10-18T04:37:30.229Z,56.20
2022-10-18T04:38:29.904Z,55.70
2022-10-18T04:39:29.881Z,54.30
2022-10-18T04:40:29.921Z,61.10
2022-10-18T04:41:29.859Z,55.30
2022-10-18T04:42:29.871Z,59.90
2022-10-18T04:43:29.839Z,58.00
2022-10-18T04:44:29.845Z,53.90
2022-10-18T04:45:29.817Z,56.50
2022-10-18T04:46:29.841Z,69.90
2022-10-18T04:47:30.109Z,65.00
2022-10-18T04:48:29.797Z,68.30
2022-10-18T04:49:29.775Z,75.90
2022-10-18T04:50:29.777Z,57.60
2022-10-18T04:51:29.749Z,56.20
2022-10-18T04:52:29.793Z,58.40
2022-10-18T04:53:29.731Z,59.40
2022-10-18T04:54:29.731Z,64.30
2022-10-18T04:55:29.711Z,58.90
2022-10-18T04:56:29.709Z,50.70
2022-10-18T04:57:30.009Z,57.30
2022-10-18T04:58:29.714Z,48.90
2022-10-18T04:59:29.666Z,50.30
2022-10-18T05:00:29.669Z,59.80
2022-10-18T05:01:29.676Z,81.20
2022-10-18T05:02:29.885Z,86.40
2022-10-18T05:03:29.629Z,75.80
2022-10-18T05:04:29.858Z,72.00
2022-10-18T05:05:49.628Z,65.60
2022-10-18T05:06:29.613Z,87.60
2022-10-18T05:07:29.593Z,103.80
2022-10-18T05:08:29.590Z,87.30
2022-10-18T05:09:29.560Z,80.00
2022-10-18T05:10:29.588Z,94.90
2022-10-18T05:11:29.539Z,93.70
2022-10-18T05:12:29.781Z,93.50
2022-10-18T05:13:29.515Z,69.30
2022-10-18T05:14:29.518Z,97.50
2022-10-18T05:15:29.497Z,82.10
2022-10-18T05:16:29.522Z,82.10
2022-10-18T05:17:29.473Z,81.20
2022-10-18T05:18:29.487Z,80.10
2022-10-18T05:19:29.449Z,77.20
2022-10-18T05:20:29.457Z,72.30
2022-10-18T05:21:29.427Z,94.20
2022-10-18T05:22:29.721Z,110.40
2022-10-18T05:23:29.410Z,111.20
2022-10-18T05:24:29.410Z,100.60
2022-10-18T05:25:29.396Z,88.80
2022-10-18T05:26:29.387Z,95.30
2022-10-18T05:27:29.400Z,104.90
2022-10-18T05:28:44.863Z,77.00
2022-10-18T05:29:29.355Z,72.80
2022-10-18T05:30:29.347Z,81.30
2022-10-18T05:31:29.321Z,81.60
2022-10-18T05:32:29.514Z,82.40
2022-10-18T05:33:29.320Z,82.90
2022-10-18T05:34:29.308Z,83.30
2022-10-18T05:35:29.282Z,88.40
2022-10-18T05:36:29.282Z,83.40
2022-10-18T05:37:29.259Z,82.30
2022-10-18T05:38:29.321Z,91.10
2022-10-18T05:39:29.250Z,89.30
2022-10-18T05:40:29.243Z,82.20
2022-10-18T05:41:29.217Z,81.30
2022-10-18T05:42:29.494Z,87.70
2022-10-18T05:43:29.210Z,96.00
2022-10-18T05:44:29.228Z,71.60
2022-10-18T05:45:29.173Z,73.10
2022-10-18T05:46:29.177Z,83.90
2022-10-18T05:47:29.212Z,86.30
2022-10-18T05:48:29.157Z,95.40
2022-10-18T05:49:29.133Z,100.00
2022-10-18T05:50:29.164Z,91.30
2022-10-18T05:51:29.112Z,118.70
2022-10-18T05:52:29.212Z,92.60
2022-10-18T05:53:36.577Z,87.90
2022-10-18T05:54:29.096Z,82.20
2022-10-18T05:55:29.084Z,85.70
2022-10-18T05:56:29.218Z,91.50
2022-10-18T05:57:29.288Z,77.90
2022-10-18T05:58:29.055Z,89.80
2022-10-18T05:59:29.024Z,98.50
2022-10-18T06:00:29.038Z,82.60
2022-10-18T06:01:29.003Z,86.80
2022-10-18T06:02:29.076Z,81.10
2022-10-18T06:03:29.005Z,86.10
2022-10-18T06:04:28.988Z,82.20
2022-10-18T06:05:29.025Z,92.30
2022-10-18T06:06:28.965Z,80.40
2022-10-18T06:07:29.123Z,78.40
2022-10-18T06:08:28.974Z,113.70
2022-10-18T06:09:28.925Z,114.60
2022-10-18T06:10:28.916Z,106.00
2022-10-18T06:11:28.892Z,97.40
2022-10-18T06:12:28.900Z,79.50
2022-10-18T06:13:31.180Z,129.90
2022-10-18T06:14:28.913Z,118.50
2022-10-18T06:15:28.853Z,105.40
2022-10-18T06:16:32.462Z,109.40
2022-10-18T06:17:31.740Z,75.60
2022-10-18T06:18:28.830Z,92.20
2022-10-18T06:19:28.815Z,101.90
2022-10-18T06:20:28.861Z,99.10
2022-10-18T06:21:28.795Z,106.50
2022-10-18T06:22:28.788Z,99.70
2022-10-18T06:23:28.769Z,95.20
2022-10-18T06:24:28.776Z,84.60
2022-10-18T06:25:28.749Z,96.00
2022-10-18T06:26:28.780Z,90.60
2022-10-18T06:27:28.864Z,76.80
2022-10-18T06:28:28.815Z,78.00
2022-10-18T06:29:28.700Z,93.40
2022-10-18T06:30:28.722Z,85.80
2022-10-18T06:31:28.700Z,97.70
2022-10-18T06:32:28.707Z,99.70
2022-10-18T06:33:28.661Z,83.40
2022-10-18T06:34:28.662Z,80.60
2022-10-18T06:35:28.633Z,86.50
2022-10-18T06:36:28.643Z,86.20
2022-10-18T06:37:28.662Z,88.30
2022-10-18T06:38:28.639Z,86.60
2022-10-18T06:39:28.595Z,84.80
2022-10-18T06:40:28.599Z,95.30
2022-10-18T06:41:28.603Z,80.50
2022-10-18T06:42:28.577Z,82.80
2022-10-18T06:43:28.550Z,69.60
2022-10-18T06:44:28.556Z,72.70
2022-10-18T06:45:28.532Z,72.80
2022-10-18T06:46:28.530Z,78.60
2022-10-18T06:47:28.552Z,78.40
2022-10-18T06:48:28.513Z,94.50
2022-10-18T06:49:28.494Z,81.10
2022-10-18T06:50:29.053Z,87.90
2022-10-18T06:51:28.471Z,79.30
2022-10-18T06:52:28.645Z,85.90
2022-10-18T06:53:28.439Z,88.20
2022-10-18T06:54:28.444Z,75.80
2022-10-18T06:55:28.439Z,84.00
2022-10-18T06:56:28.425Z,74.60
2022-10-18T06:57:28.403Z,70.70
2022-10-18T06:58:28.423Z,68.40
2022-10-18T06:59:31.133Z,81.30
2022-10-18T07:00:28.401Z,82.10
2022-10-18T07:01:28.417Z,77.00
2022-10-18T07:02:28.358Z,67.00
2022-10-18T07:03:28.390Z,66.20
2022-10-18T07:04:28.337Z,58.50
2022-10-18T07:05:28.368Z,63.70
2022-10-18T07:06:28.315Z,67.10
2022-10-18T07:07:28.390Z,72.20
2022-10-18T07:08:28.300Z,88.10
2022-10-18T07:09:28.291Z,91.40
2022-10-18T07:10:28.273Z,78.00
2022-10-18T07:11:28.250Z,77.00
2022-10-18T07:12:28.270Z,79.80
2022-10-18T07:13:32.312Z,76.00
2022-10-18T07:14:29.255Z,79.00
2022-10-18T07:15:28.258Z,71.50
2022-10-18T07:16:28.210Z,77.40
2022-10-18T07:17:28.188Z,74.80
2022-10-18T07:18:28.194Z,69.20
2022-10-18T07:19:28.165Z,79.30
2022-10-18T07:20:28.188Z,84.50
2022-10-18T07:21:28.142Z,83.40
2022-10-18T07:22:30.278Z,90.00
2022-10-18T07:23:28.119Z,92.10
2022-10-18T07:24:28.149Z,74.00
2022-10-18T07:25:29.904Z,86.80
2022-10-18T07:26:28.105Z,89.10
2022-10-18T07:27:28.080Z,77.70
2022-10-18T07:28:28.110Z,76.70
2022-10-18T07:29:28.059Z,84.00
2022-10-18T07:30:28.058Z,80.80
2022-10-18T07:31:28.060Z,76.30
2022-10-18T07:32:28.040Z,72.30
2022-10-18T07:33:28.012Z,78.10
2022-10-18T07:34:28.015Z,73.90
2022-10-18T07:35:27.997Z,77.90
2022-10-18T07:36:28.027Z,78.90
2022-10-18T07:37:30.141Z,80.00
2022-10-18T07:38:27.973Z,77.80
2022-10-18T07:39:27.952Z,82.50
2022-10-18T07:40:27.951Z,88.50
2022-10-18T07:41:27.929Z,85.90
2022-10-18T07:42:27.957Z,84.10
2022-10-18T07:43:27.903Z,91.20
2022-10-18T07:44:27.907Z,87.70
2022-10-18T07:45:27.956Z,81.50
2022-10-18T07:46:27.889Z,77.40
2022-10-18T07:47:30.078Z,78.20
2022-10-18T07:48:27.870Z,80.30
2022-10-18T07:49:27.842Z,84.20
2022-10-18T07:50:27.844Z,84.30
2022-10-18T07:51:27.819Z,85.70
2022-10-18T07:52:27.829Z,87.70
2022-10-18T07:53:27.826Z,83.40
2022-10-18T07:54:27.802Z,82.90
2022-10-18T07:55:27.778Z,93.40
2022-10-18T07:56:27.786Z,103.30
2022-10-18T07:57:27.755Z,81.90
2022-10-18T07:58:27.794Z,84.50
2022-10-18T07:59:27.737Z,83.80
2022-10-18T08:00:27.737Z,87.50
2022-10-18T08:01:27.765Z,93.20
2022-10-18T08:02:27.717Z,88.00
2022-10-18T08:03:27.695Z,93.20
2022-10-18T08:04:27.729Z,97.70
2022-10-18T08:05:27.760Z,91.90
2022-10-18T08:06:27.669Z,102.00
2022-10-18T08:07:27.647Z,92.90
2022-10-18T08:08:27.651Z,107.50
2022-10-18T08:09:27.660Z,102.80
2022-10-18T08:10:27.631Z,103.00
2022-10-18T08:11:27.607Z,106.20
2022-10-18T08:12:27.607Z,107.00
2022-10-18T08:13:27.591Z,111.80
2022-10-18T08:14:27.589Z,107.30
2022-10-18T08:15:27.583Z,118.90
2022-10-18T08:16:27.630Z,100.50
2022-10-18T08:17:27.540Z,116.90
2022-10-18T08:18:27.544Z,117.90
2022-10-18T08:19:27.517Z,124.30
2022-10-18T08:20:30.878Z,126.20
2022-10-18T08:21:27.497Z,122.90
2022-10-18T08:22:27.503Z,117.30
2022-10-18T08:23:27.475Z,130.00
2022-10-18T08:24:27.483Z,132.30
2022-10-18T08:25:27.530Z,132.30
2022-10-18T08:26:27.469Z,135.00
2022-10-18T08:27:27.446Z,153.70
2022-10-18T08:28:27.441Z,136.80
2022-10-18T08:29:31.577Z,134.00
2022-10-18T08:30:27.401Z,144.60
2022-10-18T08:31:27.442Z,147.50
2022-10-18T08:32:27.394Z,155.80
2022-10-18T08:33:27.383Z,153.10
2022-10-18T08:34:27.392Z,150.90
2022-10-18T08:35:27.367Z,152.60
2022-10-18T08:36:27.336Z,141.70
2022-10-18T08:37:27.375Z,162.00
2022-10-18T08:38:27.325Z,159.10
2022-10-18T08:39:27.320Z,161.80
2022-10-18T08:40:27.295Z,160.50
2022-10-18T08:41:27.311Z,152.80
2022-10-18T08:42:27.877Z,153.40
2022-10-18T08:43:27.320Z,161.50
2022-10-18T08:44:27.257Z,170.90
2022-10-18T08:45:41.032Z,161.40
2022-10-18T08:46:27.238Z,179.30
2022-10-18T08:47:27.237Z,161.50
2022-10-18T08:48:27.243Z,176.90
2022-10-18T08:49:27.212Z,162.10
2022-10-18T08:50:27.215Z,152.60
2022-10-18T08:51:27.190Z,162.20
2022-10-18T08:52:27.206Z,159.60
2022-10-18T08:53:27.179Z,170.30
2022-10-18T08:54:27.144Z,150.80
2022-10-18T08:55:27.149Z,168.90
2022-10-18T08:56:27.151Z,169.70
2022-10-18T08:57:27.134Z,160.50
2022-10-18T08:58:27.102Z,168.80
2022-10-18T08:59:27.110Z,159.80
2022-10-18T09:00:27.087Z,167.50
2022-10-18T09:01:27.088Z,161.10
2022-10-18T09:02:27.103Z,170.50
2022-10-18T09:03:27.109Z,178.30
2022-10-18T09:04:27.038Z,173.80
2022-10-18T09:05:27.040Z,198.70
2022-10-18T09:06:27.015Z,189.10
2022-10-18T09:07:27.025Z,190.90
2022-10-18T09:08:27.028Z,196.60
2022-10-18T09:09:26.997Z,235.80
2022-10-18T09:10:26.975Z,216.30
2022-10-18T09:11:27.016Z,212.70
2022-10-18T09:12:26.957Z,217.40
2022-10-18T09:13:26.956Z,210.80
2022-10-18T09:14:26.970Z,219.70
2022-10-18T09:15:26.931Z,217.10
2022-10-18T09:16:26.907Z,217.60
2022-10-18T09:17:26.912Z,222.10
2022-10-18T09:18:26.902Z,224.20
2022-10-18T09:19:26.894Z,215.90
2022-10-18T09:20:26.908Z,229.50
2022-10-18T09:21:26.889Z,239.60
2022-10-18T09:22:26.844Z,242.00
2022-10-18T09:23:26.849Z,234.60
2022-10-18T09:24:26.830Z,264.90
2022-10-18T09:25:26.827Z,246.80
2022-10-18T09:26:26.831Z,250.10
2022-10-18T09:27:26.804Z,228.70
2022-10-18T09:28:26.816Z,244.00
2022-10-18T09:29:26.841Z,256.30
2022-10-18T09:30:26.762Z,240.40
2022-10-18T09:31:26.762Z,233.90
2022-10-18T09:32:26.768Z,272.30
2022-10-18T09:33:26.738Z,264.50
2022-10-18T09:34:26.714Z,259.20
2022-10-18T09:35:26.722Z,252.60
2022-10-18T09:36:26.693Z,222.80
2022-10-18T09:37:26.697Z,245.30
2022-10-18T09:38:26.723Z,250.90
2022-10-18T09:39:26.675Z,227.70
2022-10-18T09:40:26.687Z,225.80
2022-10-18T09:41:26.661Z,239.30
2022-10-18T09:42:26.645Z,230.30
2022-10-18T09:43:26.635Z,223.90
2022-10-18T09:44:26.632Z,234.90
2022-10-18T09:45:26.613Z,247.40
2022-10-18T09:46:26.588Z,219.30
2022-10-18T09:47:26.601Z,217.50
2022-10-18T09:48:26.571Z,217.00
2022-10-18T09:49:26.577Z,245.40
2022-10-18T09:50:26.567Z,253.50
2022-10-18T09:51:26.545Z,243.50
2022-10-18T09:52:26.527Z,233.10
2022-10-18T09:53:26.536Z,242.30
2022-10-18T09:54:26.506Z,243.60
2022-10-18T09:55:26.504Z,255.70
2022-10-18T09:56:26.543Z,278.80
2022-10-18T09:57:26.484Z,272.80
2022-10-18T09:58:26.458Z,246.00
2022-10-18T09:59:26.466Z,254.80
2022-10-18T10:00:26.435Z,253.20
2022-10-18T10:01:26.443Z,235.30
2022-10-18T10:02:26.496Z,246.70
2022-10-18T10:03:26.440Z,239.50
2022-10-18T10:04:26.401Z,240.10
2022-10-18T10:05:26.386Z,246.10
2022-10-18T10:06:26.376Z,247.60
2022-10-18T10:07:27.694Z,221.80
2022-10-18T10:08:26.396Z,215.20
2022-10-18T10:09:26.358Z,222.00
2022-10-18T10:10:26.424Z,215.30
2022-10-18T10:11:26.341Z,213.90
2022-10-18T10:12:26.312Z,220.60
2022-10-18T10:13:26.321Z,251.50
2022-10-18T10:14:26.323Z,205.50
2022-10-18T10:15:28.295Z,199.80
2022-10-18T10:16:26.279Z,176.30
2022-10-18T10:17:26.272Z,238.10
2022-10-18T10:18:26.252Z,186.40
2022-10-18T10:19:26.248Z,178.10
2022-10-18T10:20:26.249Z,180.50
2022-10-18T10:21:26.237Z,194.90
2022-10-18T10:22:26.203Z,167.70
2022-10-18T10:23:26.208Z,182.40
2022-10-18T10:24:28.914Z,168.30
2022-10-18T10:25:26.182Z,179.30
2022-10-18T10:26:26.196Z,191.80
2022-10-18T10:27:26.161Z,166.20
2022-10-18T10:28:26.192Z,144.30
2022-10-18T10:29:43.601Z,145.70
2022-10-18T10:30:26.126Z,139.40
2022-10-18T10:31:26.119Z,134.70
2022-10-18T10:33:26.102Z,122.10
2022-10-18T10:34:26.078Z,116.40
2022-10-18T10:35:41.397Z,116.50
2022-10-18T10:36:26.057Z,115.70
2022-10-18T10:37:26.057Z,97.90
2022-10-18T10:38:26.147Z,125.70
2022-10-18T10:39:26.033Z,106.20
2022-10-18T10:40:28.534Z,105.70
2022-10-18T10:41:26.078Z,111.90
2022-10-18T10:42:25.985Z,91.60
2022-10-18T10:43:36.905Z,97.00
2022-10-18T10:44:26.006Z,86.40
2022-10-18T10:45:25.977Z,98.40
2022-10-18T10:46:25.954Z,94.60
2022-10-18T10:47:25.947Z,83.10
2022-10-18T10:48:28.810Z,97.10
2022-10-18T10:49:41.600Z,96.20
2022-10-18T10:50:25.959Z,95.50
2022-10-18T10:51:25.904Z,95.60
2022-10-18T10:52:37.378Z,106.10
2022-10-18T10:53:25.893Z,102.90
2022-10-18T10:54:25.856Z,89.30
2022-10-18T10:55:34.820Z,86.30
2022-10-18T10:56:25.843Z,84.20
2022-10-18T10:57:25.842Z,85.40
2022-10-18T10:58:25.820Z,87.20
2022-10-18T10:59:25.820Z,90.50
2022-10-18T11:00:25.794Z,88.00
2022-10-18T11:01:25.833Z,75.90
2022-10-18T11:02:25.781Z,88.60
2022-10-18T11:03:30.041Z,81.40
2022-10-18T11:04:25.773Z,108.80
2022-10-18T11:05:25.770Z,81.70
2022-10-18T11:06:25.737Z,82.70
2022-10-18T11:07:25.763Z,79.70
2022-10-18T11:08:25.713Z,86.60
2022-10-18T11:09:25.711Z,77.50
2022-10-18T11:10:25.691Z,78.10
2022-10-18T11:11:25.693Z,95.10
2022-10-18T11:12:25.666Z,76.10
2022-10-18T11:13:25.706Z,70.40
2022-10-18T11:14:26.895Z,66.50
2022-10-18T11:15:25.647Z,67.50
2022-10-18T11:16:25.626Z,61.50
2022-10-18T11:17:25.629Z,64.30
2022-10-18T11:18:25.603Z,60.50
2022-10-18T11:19:27.803Z,55.50
2022-10-18T11:20:25.586Z,50.70
2022-10-18T11:21:25.583Z,55.00
2022-10-18T11:22:25.564Z,52.70
2022-10-18T11:23:25.567Z,57.50
2022-10-18T11:24:25.541Z,58.80
2022-10-18T11:25:25.586Z,56.70
2022-10-18T11:26:25.527Z,53.50
2022-10-18T11:27:25.520Z,55.60
2022-10-18T11:28:25.533Z,53.80
2022-10-18T11:29:25.503Z,55.90
2022-10-18T11:30:25.476Z,58.10
2022-10-18T11:31:25.516Z,57.20
2022-10-18T11:32:25.468Z,56.60
2022-10-18T11:33:33.786Z,58.90
2022-10-18T11:34:25.438Z,59.60
2022-10-18T11:35:25.435Z,60.40
2022-10-18T11:36:25.420Z,55.40
2022-10-18T11:37:29.480Z,55.30
2022-10-18T11:38:25.401Z,52.70
2022-10-18T11:39:25.397Z,56.90
2022-10-18T11:40:25.371Z,51.60
2022-10-18T11:41:25.380Z,49.50
2022-10-18T11:42:25.344Z,51.30
2022-10-18T11:43:30.347Z,43.50
2022-10-18T11:44:25.330Z,58.20
2022-10-18T11:45:25.395Z,42.60
2022-10-18T11:46:25.304Z,39.30
2022-10-18T11:47:25.305Z,42.00
2022-10-18T11:48:25.281Z,34.60
2022-10-18T11:49:25.312Z,36.60
2022-10-18T11:50:25.270Z,40.60
2022-10-18T11:51:34.134Z,39.50
2022-10-18T11:52:25.263Z,39.90
2022-10-18T11:53:25.243Z,39.80
2022-10-18T11:54:25.220Z,41.60
2022-10-18T11:55:28.889Z,39.80
2022-10-18T11:56:25.217Z,40.10
2022-10-18T11:57:25.213Z,36.40
2022-10-18T11:58:25.175Z,40.80
2022-10-18T11:59:25.177Z,39.80
2022-10-18T12:00:25.154Z,42.40
2022-10-18T12:01:28.337Z,37.90
2022-10-18T12:02:25.186Z,35.70
2022-10-18T12:03:25.141Z,36.20
2022-10-18T12:04:25.111Z,36.10
2022-10-18T12:05:25.308Z,33.90
2022-10-18T12:06:25.095Z,36.00
2022-10-18T12:07:29.001Z,32.60
2022-10-18T12:08:25.078Z,29.80
2022-10-18T12:09:25.073Z,31.70
2022-10-18T12:10:37.828Z,32.20
2022-10-18T12:11:25.079Z,30.40
2022-10-18T12:12:25.031Z,29.40
2022-10-18T12:13:25.033Z,29.70
2022-10-18T12:14:25.004Z,29.10
2022-10-18T12:15:25.007Z,30.40
2022-10-18T12:16:45.409Z,29.40
2022-10-18T12:17:45.081Z,31.70
2022-10-18T12:18:24.967Z,27.60
2022-10-18T12:19:26.840Z,29.80
2022-10-18T12:20:24.941Z,31.80
2022-10-18T12:21:25.855Z,31.90
2022-10-18T12:22:24.950Z,30.00
2022-10-18T12:23:24.923Z,31.30
2022-10-18T12:24:24.906Z,32.20
2022-10-18T12:25:24.903Z,33.00
2022-10-18T12:26:24.881Z,35.30
2022-10-18T12:27:24.900Z,32.60
2022-10-18T12:28:24.991Z,38.20
2022-10-18T12:29:24.853Z,36.60
2022-10-18T12:30:24.829Z,34.50
2022-10-18T12:31:24.836Z,32.80
2022-10-18T12:32:24.816Z,33.50
2022-10-18T12:33:28.985Z,35.00
2022-10-18T12:34:24.784Z,31.70
2022-10-18T12:35:24.789Z,34.80
2022-10-18T12:36:24.774Z,31.20
2022-10-18T12:37:24.768Z,31.70
2022-10-18T12:38:24.745Z,32.00
2022-10-18T12:39:33.328Z,31.10
2022-10-18T12:40:24.740Z,32.30
2022-10-18T12:41:24.711Z,31.10
2022-10-18T12:42:24.716Z,30.20
2022-10-18T12:43:24.696Z,29.50
2022-10-18T12:44:24.719Z,30.60
2022-10-18T12:45:24.672Z,27.90
2022-10-18T12:46:24.738Z,30.70
2022-10-18T12:47:24.649Z,30.80
2022-10-18T12:48:24.649Z,28.90
2022-10-18T12:49:24.641Z,33.90
2022-10-18T12:50:24.647Z,32.80